createdAt,value
2023-02-27T00:00:00.254Z,78.5
2023-02-27T00:01:00.267Z,78.5
2023-02-27T00:02:00.234Z,78.8
2023-02-27T00:03:00.292Z,78.4
2023-02-27T00:04:00.311Z,78.7
2023-02-27T00:05:00.254Z,78.8
2023-02-27T00:06:00.251Z,78.5
2023-02-27T00:07:00.240Z,78.8
2023-02-27T00:08:00.249Z,78.5
2023-02-27T00:09:00.316Z,78.5
2023-02-27T00:10:00.271Z,78.8
2023-02-27T00:11:00.267Z,78.8
2023-02-27T00:12:00.240Z,78.7
2023-02-27T00:13:00.239Z,78.7
2023-02-27T00:14:00.244Z,78.8
2023-02-27T00:15:00.268Z,79
2023-02-27T00:16:00.324Z,78.8
2023-02-27T00:17:00.265Z,78.8
2023-02-27T00:18:00.252Z,78.8
2023-02-27T00:19:00.244Z,78.3
2023-02-27T00:20:00.262Z,78.8
2023-02-27T00:21:00.272Z,78.8
2023-02-27T00:22:00.260Z,78.8
2023-02-27T00:23:00.250Z,78.8
2023-02-27T00:24:00.253Z,79.1
2023-02-27T00:25:00.336Z,78.6
2023-02-27T00:26:00.271Z,78.8
2023-02-27T00:27:00.272Z,78.8
2023-02-27T00:28:00.266Z,78.8
2023-02-27T00:29:00.264Z,78.8
2023-02-27T00:30:00.266Z,78.9
2023-02-27T00:31:00.429Z,79.2
2023-02-27T00:32:00.485Z,79.2
2023-02-27T00:33:00.288Z,79.4
2023-02-27T00:34:00.276Z,78.9
2023-02-27T00:35:00.272Z,78.9
2023-02-27T00:36:00.266Z,79.4
2023-02-27T00:37:00.284Z,79.4
2023-02-27T00:38:00.276Z,79.7
2023-02-27T00:39:00.260Z,79.7
2023-02-27T00:40:00.259Z,80
2023-02-27T00:41:00.284Z,79.5
2023-02-27T00:42:00.284Z,79.7
2023-02-27T00:43:00.284Z,80
2023-02-27T00:44:00.263Z,80
2023-02-27T00:45:00.269Z,79.8
2023-02-27T00:46:00.277Z,80
2023-02-27T00:47:00.296Z,80
2023-02-27T00:48:00.286Z,79.8
2023-02-27T00:49:00.274Z,79.8
2023-02-27T00:50:00.293Z,80
2023-02-27T00:51:00.286Z,80
2023-02-27T00:52:00.293Z,79.8
2023-02-27T00:53:00.293Z,80.3
2023-02-27T00:54:00.301Z,80.3
2023-02-27T00:55:00.285Z,80
2023-02-27T00:56:00.302Z,80
2023-02-27T00:57:00.285Z,79.8
2023-02-27T00:58:00.329Z,80
2023-02-27T00:59:00.307Z,80.6
2023-02-27T01:00:00.328Z,80.3
2023-02-27T01:01:00.347Z,79.8
2023-02-27T01:02:00.291Z,79.9
2023-02-27T01:03:00.320Z,80
2023-02-27T01:04:00.296Z,79.8
2023-02-27T01:05:00.316Z,80
2023-02-27T01:06:00.311Z,80
2023-02-27T01:07:00.301Z,79.8
2023-02-27T01:08:00.295Z,80
2023-02-27T01:09:00.300Z,80
2023-02-27T01:10:00.331Z,80
2023-02-27T01:11:00.341Z,80.1
2023-02-27T01:12:00.319Z,80.3
2023-02-27T01:13:00.314Z,79.8
2023-02-27T01:14:00.402Z,79.8
2023-02-27T01:15:00.348Z,79.8
2023-02-27T01:16:00.469Z,79.8
2023-02-27T01:17:00.317Z,79.8
2023-02-27T01:18:00.313Z,79.9
2023-02-27T01:19:00.335Z,80
2023-02-27T01:20:00.352Z,80
2023-02-27T01:21:00.344Z,80
2023-02-27T01:22:00.322Z,80
2023-02-27T01:23:00.326Z,80
2023-02-27T01:24:00.319Z,80
2023-02-27T01:25:00.342Z,79.7
2023-02-27T01:26:00.351Z,79.8
2023-02-27T01:27:00.332Z,79.7
2023-02-27T01:28:00.349Z,79.4
2023-02-27T01:29:00.330Z,79.7
2023-02-27T01:30:00.367Z,79.5
2023-02-27T01:31:00.415Z,79.7
2023-02-27T01:32:00.416Z,79.7
2023-02-27T01:33:00.335Z,79.7
2023-02-27T01:34:00.358Z,79.7
2023-02-27T01:35:00.357Z,79.4
2023-02-27T01:36:00.340Z,79.2
2023-02-27T01:37:00.335Z,79.7
2023-02-27T01:38:00.332Z,79.4
2023-02-27T01:39:00.342Z,79.5
2023-02-27T01:40:00.358Z,80
2023-02-27T01:41:00.348Z,79.7
2023-02-27T01:42:00.349Z,79.5
2023-02-27T01:43:00.337Z,79.7
2023-02-27T01:44:00.433Z,80
2023-02-27T01:45:00.360Z,80
2023-02-27T01:46:00.421Z,79.4
2023-02-27T01:47:00.359Z,79.4
2023-02-27T01:48:00.343Z,79.7
2023-02-27T01:49:00.340Z,79.7
2023-02-27T01:50:00.373Z,79.7
2023-02-27T01:51:00.345Z,80
2023-02-27T01:52:00.351Z,80
2023-02-27T01:53:00.342Z,79.8
2023-02-27T01:54:01.024Z,80
2023-02-27T01:55:00.377Z,79.8
2023-02-27T01:56:00.352Z,80
2023-02-27T01:57:00.372Z,80
2023-02-27T01:58:00.354Z,80
2023-02-27T01:59:00.381Z,80
2023-02-27T02:00:02.894Z,79.8
2023-02-27T02:01:00.648Z,80
2023-02-27T02:02:00.358Z,80
2023-02-27T02:03:00.504Z,79.8
2023-02-27T02:04:00.357Z,79.8
2023-02-27T02:05:00.369Z,80
2023-02-27T02:06:00.376Z,79.8
2023-02-27T02:07:00.400Z,79.8
2023-02-27T02:08:00.350Z,79.8
2023-02-27T02:09:00.467Z,79.8
2023-02-27T02:10:00.406Z,80
2023-02-27T02:11:00.474Z,80
2023-02-27T02:12:00.467Z,80
2023-02-27T02:13:00.405Z,80
2023-02-27T02:14:00.468Z,79.8
2023-02-27T02:15:00.432Z,79.5
2023-02-27T02:16:00.485Z,80
2023-02-27T02:17:00.490Z,79.5
2023-02-27T02:18:00.462Z,80
2023-02-27T02:19:00.485Z,79.7
2023-02-27T02:20:00.481Z,79.4
2023-02-27T02:21:00.498Z,79.2
2023-02-27T02:23:00.491Z,79.7
2023-02-27T02:24:00.480Z,79.5
2023-02-27T02:25:00.437Z,79.5
2023-02-27T02:26:00.508Z,79.8
2023-02-27T02:27:00.468Z,79.5
2023-02-27T02:28:00.430Z,79.4
2023-02-27T02:29:00.432Z,79.2
2023-02-27T02:30:00.459Z,79.8
2023-02-27T02:31:00.543Z,79.7
2023-02-27T02:32:00.557Z,79.7
2023-02-27T02:33:00.427Z,79.7
2023-02-27T02:34:00.425Z,79.2
2023-02-27T02:35:00.432Z,79.4
2023-02-27T02:36:00.441Z,79.1
2023-02-27T02:37:00.399Z,79.4
2023-02-27T02:38:00.392Z,79.2
2023-02-27T02:39:00.392Z,79.7
2023-02-27T02:40:00.427Z,79.7
2023-02-27T02:41:00.403Z,79.2
2023-02-27T02:42:00.387Z,79.2
2023-02-27T02:43:00.398Z,79.4
2023-02-27T02:44:00.395Z,79.2
2023-02-27T02:45:00.413Z,79.4
2023-02-27T02:46:00.420Z,79.4
2023-02-27T02:47:00.395Z,78.8
2023-02-27T02:48:00.398Z,78.6
2023-02-27T02:49:00.412Z,78.8
2023-02-27T02:50:00.398Z,78.8
2023-02-27T02:51:00.417Z,79.1
2023-02-27T02:52:00.400Z,78.6
2023-02-27T02:53:00.400Z,78.6
2023-02-27T02:54:00.420Z,78.6
2023-02-27T02:55:00.426Z,78.8
2023-02-27T02:56:00.435Z,78.6
2023-02-27T02:57:00.416Z,78.8
2023-02-27T02:58:00.414Z,78.6
2023-02-27T02:59:00.422Z,79.1
2023-02-27T03:00:00.417Z,78.8
2023-02-27T03:01:00.835Z,78.8
2023-02-27T03:02:00.808Z,78.6
2023-02-27T03:03:00.816Z,79.1
2023-02-27T03:04:00.830Z,78.9
2023-02-27T03:05:00.831Z,78.8
2023-02-27T03:06:00.832Z,78.9
2023-02-27T03:07:00.820Z,78.9
2023-02-27T03:08:01.295Z,79.1
2023-02-27T03:09:00.837Z,78.6
2023-02-27T03:10:00.937Z,78.8
2023-02-27T03:11:00.848Z,78.8
2023-02-27T03:12:00.826Z,78.6
2023-02-27T03:13:00.824Z,78.8
2023-02-27T03:14:00.843Z,79.1
2023-02-27T03:15:00.842Z,78.9
2023-02-27T03:16:00.900Z,78.9
2023-02-27T03:17:00.829Z,79.2
2023-02-27T03:18:00.829Z,79.2
2023-02-27T03:19:00.844Z,79.4
2023-02-27T03:20:00.883Z,78.9
2023-02-27T03:21:00.842Z,79.1
2023-02-27T03:22:00.831Z,78.9
2023-02-27T03:23:00.838Z,79.4
2023-02-27T03:24:00.889Z,79.4
2023-02-27T03:25:00.829Z,79.4
2023-02-27T03:26:00.850Z,79.2
2023-02-27T03:27:00.838Z,79.4
2023-02-27T03:28:00.854Z,79.2
2023-02-27T03:29:00.853Z,79.6
2023-02-27T03:30:00.861Z,79.6
2023-02-27T03:31:01.052Z,79.5
2023-02-27T03:32:00.938Z,79.2
2023-02-27T03:33:00.835Z,79.3
2023-02-27T03:34:01.600Z,79.5
2023-02-27T03:35:00.845Z,80
2023-02-27T03:36:00.878Z,79.9
2023-02-27T03:37:00.837Z,79.5
2023-02-27T03:38:00.853Z,79.5
2023-02-27T03:39:00.849Z,79.9
2023-02-27T03:40:00.857Z,79.5
2023-02-27T03:41:00.870Z,79.6
2023-02-27T03:42:00.864Z,79.9
2023-02-27T03:43:00.844Z,79.6
2023-02-27T03:44:00.866Z,79.9
2023-02-27T03:45:00.869Z,79.9
2023-02-27T03:46:00.970Z,79.9
2023-02-27T03:47:00.871Z,79.9
2023-02-27T03:48:00.860Z,79.8
2023-02-27T03:49:00.866Z,79.8
2023-02-27T03:50:00.881Z,79.9
2023-02-27T03:51:00.869Z,79.9
2023-02-27T03:52:00.855Z,79.8
2023-02-27T03:53:00.860Z,80.1
2023-02-27T03:54:00.872Z,80.4
2023-02-27T03:55:00.854Z,80.2
2023-02-27T03:56:00.879Z,80.4
2023-02-27T03:57:00.867Z,80.5
2023-02-27T03:58:00.856Z,80.5
2023-02-27T03:59:00.875Z,80.4
2023-02-27T04:00:00.875Z,80.4
2023-02-27T04:01:00.887Z,80.4
2023-02-27T04:02:00.916Z,80.5
2023-02-27T04:03:00.881Z,80.4
2023-02-27T04:04:00.888Z,80.5
2023-02-27T04:05:00.870Z,80.5
2023-02-27T04:06:00.926Z,80.5
2023-02-27T04:07:00.872Z,80.8
2023-02-27T04:08:00.880Z,80.4
2023-02-27T04:09:00.880Z,80.7
2023-02-27T04:10:00.936Z,81
2023-02-27T04:11:00.899Z,81.1
2023-02-27T04:12:00.866Z,81.1
2023-02-27T04:13:00.879Z,81
2023-02-27T04:14:00.892Z,81
2023-02-27T04:15:00.890Z,81
2023-02-27T04:16:00.956Z,81
2023-02-27T04:17:00.885Z,81
2023-02-27T04:18:00.883Z,81.1
2023-02-27T04:19:00.906Z,81
2023-02-27T04:20:00.887Z,81
2023-02-27T04:21:00.880Z,81
2023-02-27T04:22:00.875Z,80.9
2023-02-27T04:23:00.896Z,81.1
2023-02-27T04:24:00.913Z,81.1
2023-02-27T04:25:00.921Z,81.1
2023-02-27T04:26:00.908Z,81
2023-02-27T04:27:00.883Z,81
2023-02-27T04:28:00.904Z,81
2023-02-27T04:29:00.890Z,81
2023-02-27T04:30:00.911Z,81
2023-02-27T04:31:01.008Z,81.1
2023-02-27T04:32:01.092Z,81.4
2023-02-27T04:33:00.898Z,80.9
2023-02-27T04:34:00.932Z,81.3
2023-02-27T04:35:00.928Z,81.6
2023-02-27T04:36:00.915Z,81.6
2023-02-27T04:37:00.934Z,81.3
2023-02-27T04:38:00.902Z,81.1
2023-02-27T04:39:00.917Z,81.1
2023-02-27T04:40:00.923Z,81
2023-02-27T04:41:00.926Z,81
2023-02-27T04:42:00.911Z,81
2023-02-27T04:43:00.930Z,81.6
2023-02-27T04:44:00.934Z,81.4
2023-02-27T04:45:00.920Z,81
2023-02-27T04:46:01.001Z,81.1
2023-02-27T04:47:00.927Z,81
2023-02-27T04:48:00.930Z,81.6
2023-02-27T04:49:00.924Z,81.6
2023-02-27T04:50:00.933Z,81.3
2023-02-27T04:51:00.939Z,81.6
2023-02-27T04:52:00.940Z,81.4
2023-02-27T04:53:00.927Z,81.6
2023-02-27T04:54:00.920Z,81.6
2023-02-27T04:55:00.923Z,81.7
2023-02-27T04:56:00.944Z,82
2023-02-27T04:57:00.921Z,82
2023-02-27T04:58:00.933Z,81.6
2023-02-27T04:59:00.942Z,82.1
2023-02-27T05:00:00.961Z,81.9
2023-02-27T05:01:00.945Z,81.6
2023-02-27T05:02:01.056Z,81.6
2023-02-27T05:03:01.095Z,81.6
2023-02-27T05:04:00.953Z,81.6
2023-02-27T05:05:00.966Z,81.6
2023-02-27T05:06:00.981Z,81.6
2023-02-27T05:07:00.954Z,81.8
2023-02-27T05:08:00.933Z,81.6
2023-02-27T05:09:00.940Z,81.6
2023-02-27T05:10:00.973Z,81.4
2023-02-27T05:11:00.961Z,81.4
2023-02-27T05:12:00.937Z,81.3
2023-02-27T05:13:00.956Z,81.3
2023-02-27T05:14:00.958Z,81.1
2023-02-27T05:15:00.946Z,81.2
2023-02-27T05:16:01.098Z,81
2023-02-27T05:17:00.969Z,81
2023-02-27T05:18:01.036Z,81.3
2023-02-27T05:19:00.964Z,81.3
2023-02-27T05:20:00.946Z,81.3
2023-02-27T05:21:00.955Z,81.4
2023-02-27T05:22:00.983Z,81.3
2023-02-27T05:23:00.261Z,81.3
2023-02-27T05:24:00.305Z,81.3
2023-02-27T05:25:00.261Z,81.1
2023-02-27T05:26:00.281Z,81
2023-02-27T05:27:00.286Z,81.6
2023-02-27T05:28:00.266Z,81.6
2023-02-27T05:29:00.274Z,81.6
2023-02-27T05:30:00.286Z,81.6
2023-02-27T05:31:00.280Z,81.8
2023-02-27T05:32:00.382Z,81.5
2023-02-27T05:33:00.280Z,81.8
2023-02-27T05:34:00.275Z,81.6
2023-02-27T05:35:00.263Z,81.6
2023-02-27T05:36:00.349Z,81.8
2023-02-27T05:37:00.264Z,81.6
2023-02-27T05:38:00.284Z,81
2023-02-27T05:39:00.281Z,81
2023-02-27T05:40:00.296Z,81
2023-02-27T05:41:00.288Z,81
2023-02-27T05:42:00.264Z,81
2023-02-27T05:43:00.294Z,81
2023-02-27T05:44:00.293Z,81.2
2023-02-27T05:45:00.276Z,81
2023-02-27T05:46:00.288Z,80.4
2023-02-27T05:47:00.264Z,80.9
2023-02-27T05:48:00.274Z,80.9
2023-02-27T05:49:00.285Z,80.7
2023-02-27T05:50:00.271Z,80.7
2023-02-27T05:51:00.301Z,80.7
2023-02-27T05:52:00.279Z,81
2023-02-27T05:53:00.277Z,80.7
2023-02-27T05:54:00.298Z,81
2023-02-27T05:55:00.292Z,80.9
2023-02-27T05:56:00.274Z,80.9
2023-02-27T05:57:00.292Z,80.9
2023-02-27T05:58:00.300Z,81.2
2023-02-27T05:59:00.288Z,80.7
2023-02-27T06:00:00.304Z,80.9
2023-02-27T06:01:00.294Z,80.6
2023-02-27T06:02:00.338Z,80.7
2023-02-27T06:03:00.349Z,80.7
2023-02-27T06:04:00.294Z,80.4
2023-02-27T06:05:00.349Z,80.6
2023-02-27T06:06:00.321Z,80.9
2023-02-27T06:07:00.299Z,81
2023-02-27T06:08:00.307Z,80.9
2023-02-27T06:09:00.294Z,81
2023-02-27T06:10:00.356Z,80.6
2023-02-27T06:11:00.390Z,80.6
2023-02-27T06:12:00.305Z,80.7
2023-02-27T06:13:00.325Z,80.7
2023-02-27T06:14:00.310Z,80.7
2023-02-27T06:15:00.311Z,80.4
2023-02-27T06:16:00.338Z,80.4
2023-02-27T06:17:00.377Z,80.6
2023-02-27T06:18:00.326Z,80.4
2023-02-27T06:19:00.323Z,81
2023-02-27T06:20:00.318Z,80.7
2023-02-27T06:21:00.345Z,81
2023-02-27T06:22:00.321Z,81.2
2023-02-27T06:23:00.327Z,81
2023-02-27T06:24:00.352Z,80.7
2023-02-27T06:25:00.333Z,80.4
2023-02-27T06:26:00.342Z,80.4
2023-02-27T06:27:00.346Z,80.4
2023-02-27T06:28:00.344Z,81.2
2023-02-27T06:29:00.324Z,80.4
2023-02-27T06:30:00.340Z,80.6
2023-02-27T06:31:00.407Z,80.4
2023-02-27T06:32:00.367Z,80.7
2023-02-27T06:33:00.342Z,80.6
2023-02-27T06:34:00.326Z,80.4
2023-02-27T06:35:00.329Z,80.4
2023-02-27T06:36:00.413Z,80.7
2023-02-27T06:37:01.545Z,81
2023-02-27T06:38:00.357Z,81
2023-02-27T06:39:00.347Z,81.2
2023-02-27T06:40:00.393Z,81
2023-02-27T06:41:00.347Z,81
2023-02-27T06:42:00.330Z,81.2
2023-02-27T06:43:00.344Z,81.1
2023-02-27T06:44:00.327Z,81
2023-02-27T06:45:00.352Z,80.7
2023-02-27T06:46:00.372Z,80.8
2023-02-27T06:47:00.355Z,80.7
2023-02-27T06:48:00.351Z,81.1
2023-02-27T06:49:00.341Z,80.9
2023-02-27T06:50:00.385Z,80.6
2023-02-27T06:51:00.336Z,81.1
2023-02-27T06:52:00.341Z,80.4
2023-02-27T06:53:00.367Z,80.5
2023-02-27T06:54:00.357Z,80.4
2023-02-27T06:55:00.356Z,80.4
2023-02-27T06:56:00.375Z,80.5
2023-02-27T06:57:00.346Z,80.4
2023-02-27T06:58:00.368Z,80.3
2023-02-27T06:59:00.363Z,80.3
2023-02-27T07:00:00.821Z,80.5
2023-02-27T07:01:00.349Z,80.5
2023-02-27T07:02:00.364Z,80.6
2023-02-27T07:03:00.374Z,80.5
2023-02-27T07:04:00.345Z,80.5
2023-02-27T07:05:00.417Z,80.5
2023-02-27T07:06:00.368Z,80.5
2023-02-27T07:07:36.133Z,80.5
2023-02-27T07:08:00.371Z,80.1
2023-02-27T07:09:06.325Z,80.6
2023-02-27T07:10:00.365Z,80.3
2023-02-27T07:11:00.391Z,80.5
2023-02-27T07:12:00.375Z,80.5
2023-02-27T07:13:00.384Z,80.5
2023-02-27T07:14:00.381Z,80.2
2023-02-27T07:15:00.371Z,80
2023-02-27T07:16:00.471Z,80.2
2023-02-27T07:17:00.390Z,80.5
2023-02-27T07:18:00.368Z,80.2
2023-02-27T07:19:00.396Z,80.5
2023-02-27T07:20:00.383Z,80.3
2023-02-27T07:21:00.390Z,80.5
2023-02-27T07:22:00.397Z,80.6
2023-02-27T07:23:00.371Z,80.5
2023-02-27T07:24:00.389Z,80.2
2023-02-27T07:25:00.367Z,80.5
2023-02-27T07:26:00.391Z,80.5
2023-02-27T07:27:00.396Z,80.5
2023-02-27T07:28:00.391Z,79.9
2023-02-27T07:29:00.433Z,79.9
2023-02-27T07:30:00.375Z,79.9
2023-02-27T07:31:00.453Z,79.9
2023-02-27T07:32:00.536Z,79.9
2023-02-27T07:33:00.376Z,79.9
2023-02-27T07:34:00.419Z,79.3
2023-02-27T07:35:00.534Z,79
2023-02-27T07:36:00.460Z,79
2023-02-27T07:37:00.397Z,79.3
2023-02-27T07:38:00.431Z,79.6
2023-02-27T07:39:00.387Z,79.8
2023-02-27T07:40:00.389Z,78.7
2023-02-27T07:41:00.470Z,79
2023-02-27T07:42:00.513Z,79
2023-02-27T07:43:00.410Z,78.7
2023-02-27T07:44:00.405Z,78.7
2023-02-27T07:45:00.404Z,78.7
2023-02-27T07:46:00.414Z,79.3
2023-02-27T07:47:00.426Z,79.3
2023-02-27T07:48:00.404Z,78.7
2023-02-27T07:49:00.398Z,79
2023-02-27T07:50:00.405Z,78.4
2023-02-27T07:51:00.432Z,78.4
2023-02-27T07:52:00.417Z,78.7
2023-02-27T07:53:00.413Z,78.8
2023-02-27T07:54:00.421Z,78.1
2023-02-27T07:55:00.429Z,78.7
2023-02-27T07:56:00.419Z,78.7
2023-02-27T07:57:00.421Z,78.7
2023-02-27T07:58:00.423Z,78.7
2023-02-27T07:59:00.411Z,78.9
2023-02-27T08:00:00.427Z,78.9
2023-02-27T08:01:00.426Z,78.7
2023-02-27T08:02:00.447Z,78.7
2023-02-27T08:03:00.491Z,78.7
2023-02-27T08:04:00.429Z,78.1
2023-02-27T08:05:00.416Z,78.1
2023-02-27T08:06:02.339Z,78.1
2023-02-27T08:07:00.424Z,78.1
2023-02-27T08:08:00.414Z,78.3
2023-02-27T08:09:00.435Z,78.1
2023-02-27T08:10:00.438Z,78.1
2023-02-27T08:11:00.435Z,78
2023-02-27T08:12:00.414Z,77.5
2023-02-27T08:13:00.437Z,78
2023-02-27T08:14:01.887Z,77.5
2023-02-27T08:15:00.429Z,77.7
2023-02-27T08:16:00.448Z,77.5
2023-02-27T08:17:00.456Z,78
2023-02-27T08:18:00.456Z,78.1
2023-02-27T08:19:00.440Z,78.1
2023-02-27T08:20:00.442Z,78.1
2023-02-27T08:21:00.449Z,77.8
2023-02-27T08:22:00.435Z,78.1
2023-02-27T08:23:00.436Z,78.1
2023-02-27T08:24:00.427Z,77.8
2023-02-27T08:25:00.445Z,77.5
2023-02-27T08:26:00.467Z,77.5
2023-02-27T08:27:00.452Z,77.5
2023-02-27T08:28:00.461Z,77.5
2023-02-27T08:29:00.436Z,77.5
2023-02-27T08:30:00.436Z,77.2
2023-02-27T08:31:00.465Z,77.7
2023-02-27T08:32:00.540Z,76.9
2023-02-27T08:33:00.464Z,76.9
2023-02-27T08:34:09.953Z,76.9
2023-02-27T08:35:00.467Z,76.9
2023-02-27T08:36:00.537Z,77.4
2023-02-27T08:37:00.437Z,77.5
2023-02-27T08:38:00.451Z,77.2
2023-02-27T08:39:00.436Z,77.5
2023-02-27T08:40:00.440Z,78.1
2023-02-27T08:41:00.467Z,78.1
2023-02-27T08:42:00.471Z,77.5
2023-02-27T08:43:00.465Z,77.7
2023-02-27T08:44:00.461Z,77.8
2023-02-27T08:45:00.442Z,77.5
2023-02-27T08:46:00.538Z,77.5
2023-02-27T08:47:00.457Z,77.7
2023-02-27T08:48:00.473Z,76.9
2023-02-27T08:49:00.456Z,77.4
2023-02-27T08:50:00.483Z,77.2
2023-02-27T08:51:00.481Z,76.9
2023-02-27T08:52:00.446Z,77.2
2023-02-27T08:53:00.462Z,77.1
2023-02-27T08:54:00.456Z,77.1
2023-02-27T08:55:00.477Z,76.3
2023-02-27T08:56:00.555Z,77.7
2023-02-27T08:57:00.458Z,77.5
2023-02-27T08:58:00.478Z,77.5
2023-02-27T08:59:00.466Z,77.5
2023-02-27T09:00:00.501Z,77.8
2023-02-27T09:01:00.542Z,77.5
2023-02-27T09:02:00.494Z,76.9
2023-02-27T09:03:00.558Z,76.8
2023-02-27T09:04:00.521Z,76.9
2023-02-27T09:05:00.480Z,77.1
2023-02-27T09:06:00.488Z,77.1
2023-02-27T09:07:00.470Z,76
2023-02-27T09:08:00.504Z,76.5
2023-02-27T09:09:00.468Z,77.1
2023-02-27T09:10:00.465Z,76.9
2023-02-27T09:11:00.490Z,76.8
2023-02-27T09:12:00.485Z,76.6
2023-02-27T09:13:00.542Z,76.3
2023-02-27T09:14:00.497Z,76.3
2023-02-27T09:15:00.474Z,76.3
2023-02-27T09:16:00.528Z,76.3
2023-02-27T09:17:00.516Z,76
2023-02-27T09:18:00.497Z,76.3
2023-02-27T09:19:00.484Z,76.3
2023-02-27T09:20:00.498Z,76.3
2023-02-27T09:21:00.505Z,76.3
2023-02-27T09:22:00.487Z,76.2
2023-02-27T09:23:00.502Z,76.3
2023-02-27T09:24:07.398Z,76.3
2023-02-27T09:25:00.482Z,76.3
2023-02-27T09:26:00.513Z,76.3
2023-02-27T09:27:00.525Z,76.5
2023-02-27T09:28:00.514Z,75.7
2023-02-27T09:29:00.499Z,75.1
2023-02-27T09:30:00.495Z,75.9
2023-02-27T09:31:00.511Z,75.7
2023-02-27T09:32:00.647Z,75.7
2023-02-27T09:33:00.521Z,76
2023-02-27T09:34:00.494Z,76.3
2023-02-27T09:35:00.500Z,76.5
2023-02-27T09:36:00.556Z,76
2023-02-27T09:37:00.496Z,76
2023-02-27T09:38:00.511Z,76.5
2023-02-27T09:39:00.517Z,75.9
2023-02-27T09:40:00.529Z,76.2
2023-02-27T09:41:00.572Z,76
2023-02-27T09:42:00.536Z,76.3
2023-02-27T09:43:00.590Z,75.7
2023-02-27T09:44:00.521Z,75.9
2023-02-27T09:45:00.509Z,76.3
2023-02-27T09:46:00.595Z,76.5
2023-02-27T09:47:00.519Z,76.3
2023-02-27T09:48:00.515Z,75.7
2023-02-27T09:49:00.512Z,76
2023-02-27T09:50:00.522Z,76.3
2023-02-27T09:51:00.535Z,75.7
2023-02-27T09:52:00.516Z,75.7
2023-02-27T09:53:00.572Z,75.7
2023-02-27T09:54:00.525Z,76
2023-02-27T09:55:00.539Z,76.2
2023-02-27T09:56:00.566Z,76.3
2023-02-27T09:57:00.539Z,75.7
2023-02-27T09:58:00.515Z,76.2
2023-02-27T09:59:00.543Z,76.3
2023-02-27T10:00:00.542Z,75.4
2023-02-27T10:01:00.537Z,75.7
2023-02-27T10:02:00.550Z,76
2023-02-27T10:03:00.539Z,75.9
2023-02-27T10:04:00.544Z,76.2
2023-02-27T10:05:00.626Z,75.7
2023-02-27T10:06:00.534Z,75.6
2023-02-27T10:07:00.545Z,75.4
2023-02-27T10:08:00.531Z,75.6
2023-02-27T10:09:00.536Z,75.3
2023-02-27T10:10:00.561Z,75.3
2023-02-27T10:11:00.542Z,75.4
2023-02-27T10:12:00.562Z,75.1
2023-02-27T10:13:00.536Z,75
2023-02-27T10:14:00.541Z,75.1
2023-02-27T10:15:00.573Z,75.3
2023-02-27T10:16:00.541Z,75.1
2023-02-27T10:17:00.569Z,74.7
2023-02-27T10:18:02.288Z,74.7
2023-02-27T10:19:00.546Z,75.2
2023-02-27T10:20:00.562Z,74.5
2023-02-27T10:21:00.548Z,74.4
2023-02-27T10:22:00.549Z,73.9
2023-02-27T10:23:00.548Z,73.9
2023-02-27T10:24:00.569Z,74.5
2023-02-27T10:25:00.572Z,74.5
2023-02-27T10:26:00.549Z,74.7
2023-02-27T10:27:00.571Z,74.5
2023-02-27T10:28:00.564Z,73.9
2023-02-27T10:29:00.573Z,74.7
2023-02-27T10:30:00.590Z,74.7
2023-02-27T10:31:00.591Z,74.1
2023-02-27T10:32:00.629Z,73.9
2023-02-27T10:33:00.563Z,74
2023-02-27T10:34:00.570Z,74.1
2023-02-27T10:35:00.581Z,73.9
2023-02-27T10:36:02.850Z,74.3
2023-02-27T10:37:00.569Z,74.3
2023-02-27T10:38:00.568Z,73.9
2023-02-27T10:39:00.563Z,73.9
2023-02-27T10:40:00.589Z,73.8
2023-02-27T10:41:00.599Z,73.3
2023-02-27T10:42:00.599Z,74.1
2023-02-27T10:43:00.988Z,73.3
2023-02-27T10:44:00.615Z,73.7
2023-02-27T10:45:00.598Z,72.9
2023-02-27T10:46:00.672Z,73.3
2023-02-27T10:47:00.579Z,73.5
2023-02-27T10:48:00.596Z,73.6
2023-02-27T10:49:00.655Z,73.8
2023-02-27T10:50:00.598Z,72.9
2023-02-27T10:51:00.566Z,73.3
2023-02-27T10:52:00.575Z,74.1
2023-02-27T10:53:00.574Z,73.4
2023-02-27T10:54:00.603Z,72.7
2023-02-27T10:55:00.598Z,73.1
2023-02-27T10:56:00.712Z,74
2023-02-27T10:57:00.626Z,73.5
2023-02-27T10:58:00.581Z,72.9
2023-02-27T10:59:00.597Z,72.8
2023-02-27T11:00:00.598Z,72.3
2023-02-27T11:01:00.588Z,72.1
2023-02-27T11:02:01.059Z,72.8
2023-02-27T11:03:00.992Z,72.8
2023-02-27T11:04:01.174Z,73.2
2023-02-27T11:05:01.218Z,72.6
2023-02-27T11:06:01.045Z,73.2
2023-02-27T11:07:00.833Z,73.6
2023-02-27T11:08:01.017Z,73.1
2023-02-27T11:09:00.604Z,72.8
2023-02-27T11:10:00.617Z,72.9
2023-02-27T11:11:00.613Z,72.2
2023-02-27T11:12:00.596Z,72.2
2023-02-27T11:13:00.624Z,72.6
2023-02-27T11:14:01.416Z,72.2
2023-02-27T11:15:00.609Z,72
2023-02-27T11:16:00.719Z,71.3
2023-02-27T11:17:00.652Z,71.3
2023-02-27T11:18:00.600Z,71.1
2023-02-27T11:19:00.619Z,70.7
2023-02-27T11:20:01.621Z,70.7
2023-02-27T11:21:00.600Z,71.6
2023-02-27T11:22:00.640Z,71.4
2023-02-27T11:23:00.677Z,70.7
2023-02-27T11:24:00.576Z,71
2023-02-27T11:25:01.362Z,70.8
2023-02-27T11:26:00.526Z,70.4
2023-02-27T11:27:00.481Z,71
2023-02-27T11:28:00.472Z,71
2023-02-27T11:29:00.420Z,70.4
2023-02-27T11:30:00.434Z,69.8
2023-02-27T11:31:00.436Z,70.2
2023-02-27T11:32:00.370Z,70.5
2023-02-27T11:33:00.346Z,70.6
2023-02-27T11:34:00.309Z,69.8
2023-02-27T11:35:00.320Z,69
2023-02-27T11:36:00.265Z,69.2
2023-02-27T11:37:00.386Z,69.5
2023-02-27T11:38:00.296Z,69.5
2023-02-27T11:39:00.196Z,69.2
2023-02-27T11:40:00.261Z,69.8
2023-02-27T11:41:00.343Z,69.9
2023-02-27T11:42:00.229Z,69.8
2023-02-27T11:43:00.220Z,69.2
2023-02-27T11:44:01.163Z,68.6
2023-02-27T11:45:00.263Z,69.3
2023-02-27T11:46:20.439Z,69.2
2023-02-27T11:47:00.399Z,69.9
2023-02-27T11:48:01.385Z,69
2023-02-27T11:49:00.355Z,68.6
2023-02-27T11:50:00.355Z,68.7
2023-02-27T11:51:00.368Z,68
2023-02-27T11:52:00.326Z,68.7
2023-02-27T11:53:00.494Z,68.7
2023-02-27T11:54:00.409Z,68
2023-02-27T11:55:00.377Z,68.6
2023-02-27T11:56:00.493Z,68.9
2023-02-27T11:57:00.412Z,68.7
2023-02-27T11:58:00.452Z,68.3
2023-02-27T11:59:00.481Z,68
2023-02-27T12:00:00.384Z,68.4
2023-02-27T12:01:00.498Z,67.5
2023-02-27T12:02:00.560Z,67.8
2023-02-27T12:03:00.471Z,68.1
2023-02-27T12:04:00.471Z,68
2023-02-27T12:05:00.343Z,68
2023-02-27T12:06:00.412Z,68
2023-02-27T12:07:00.321Z,67.7
2023-02-27T12:08:00.353Z,67.7
2023-02-27T12:09:00.429Z,68.1
2023-02-27T12:10:00.238Z,67.5
2023-02-27T12:11:12.842Z,67.7
2023-02-27T12:12:00.239Z,66.5
2023-02-27T12:13:00.244Z,67.5
2023-02-27T12:14:01.060Z,66.9
2023-02-27T12:15:00.471Z,66.9
2023-02-27T12:16:00.321Z,67.4
2023-02-27T12:17:00.251Z,67.4
2023-02-27T12:18:00.249Z,67.5
2023-02-27T12:19:00.261Z,67.5
2023-02-27T12:20:00.260Z,66.2
2023-02-27T12:21:00.280Z,66.2
2023-02-27T12:22:00.254Z,66.9
2023-02-27T12:23:00.256Z,66.8
2023-02-27T12:24:00.276Z,67.4
2023-02-27T12:25:00.241Z,67.4
2023-02-27T12:26:00.282Z,67.9
2023-02-27T12:27:00.247Z,66.3
2023-02-27T12:28:00.259Z,65.7
2023-02-27T12:29:00.277Z,65.6
2023-02-27T12:30:00.328Z,65.6
2023-02-27T12:31:00.277Z,66.3
2023-02-27T12:32:00.442Z,66.2
2023-02-27T12:33:00.262Z,66.5
2023-02-27T12:34:00.255Z,66.6
2023-02-27T12:35:00.260Z,66.9
2023-02-27T12:36:00.358Z,65.7
2023-02-27T12:37:00.264Z,66.8
2023-02-27T12:38:00.319Z,66.7
2023-02-27T12:39:00.254Z,66.4
2023-02-27T12:40:00.253Z,66.4
2023-02-27T12:41:00.274Z,66
2023-02-27T12:42:00.277Z,65.3
2023-02-27T12:43:00.270Z,65.6
2023-02-27T12:44:00.274Z,65.7
2023-02-27T12:45:00.282Z,65.6
2023-02-27T12:46:00.374Z,65.1
2023-02-27T12:47:00.270Z,64.2
2023-02-27T12:48:00.276Z,65.1
2023-02-27T12:49:00.262Z,65.7
2023-02-27T12:50:00.290Z,65.1
2023-02-27T12:51:00.284Z,65.6
2023-02-27T12:52:00.267Z,65.7
2023-02-27T12:53:00.292Z,65.1
2023-02-27T12:54:00.265Z,63.9
2023-02-27T12:55:00.280Z,64.8
2023-02-27T12:56:00.268Z,64.5
2023-02-27T12:57:00.265Z,64.5
2023-02-27T12:58:00.297Z,65.1
2023-02-27T12:59:00.277Z,66
2023-02-27T13:00:00.291Z,65.3
2023-02-27T13:01:00.327Z,65.6
2023-02-27T13:02:00.281Z,65.8
2023-02-27T13:03:00.292Z,64.5
2023-02-27T13:04:00.393Z,65
2023-02-27T13:05:00.297Z,65.2
2023-02-27T13:06:00.293Z,65.2
2023-02-27T13:07:00.282Z,64.6
2023-02-27T13:08:00.334Z,65.1
2023-02-27T13:09:00.289Z,64.9
2023-02-27T13:10:00.310Z,64.6
2023-02-27T13:11:00.300Z,64
2023-02-27T13:12:00.295Z,63.9
2023-02-27T13:13:00.308Z,64.3
2023-02-27T13:14:00.311Z,63.6
2023-02-27T13:15:00.326Z,62.8
2023-02-27T13:16:00.311Z,63.4
2023-02-27T13:17:00.319Z,62.8
2023-02-27T13:18:00.292Z,62
2023-02-27T13:19:00.305Z,63.3
2023-02-27T13:20:00.321Z,63.3
2023-02-27T13:21:00.324Z,63
2023-02-27T13:22:00.309Z,63.2
2023-02-27T13:23:00.313Z,63.3
2023-02-27T13:24:00.305Z,63.3
2023-02-27T13:25:00.333Z,62.7
2023-02-27T13:26:00.327Z,62.9
2023-02-27T13:27:00.326Z,62.7